createdAt,value
2022-12-03T00:00:53.753Z,4.55
2022-12-03T00:03:20.710Z,4.65
2022-12-03T00:05:49.152Z,5.00
2022-12-03T00:08:16.009Z,4.72
2022-12-03T00:10:42.538Z,5.05
2022-12-03T00:13:09.813Z,4.70
2022-12-03T00:15:36.272Z,5.32
2022-12-03T00:18:02.735Z,4.57
2022-12-03T00:20:29.130Z,5.05
2022-12-03T00:22:55.667Z,5.13
2022-12-03T00:25:22.040Z,4.45
2022-12-03T00:27:48.449Z,4.97
2022-12-03T00:30:14.980Z,4.68
2022-12-03T00:32:41.456Z,4.88
2022-12-03T00:35:08.785Z,4.80
2022-12-03T00:37:35.336Z,5.43
2022-12-03T00:40:04.383Z,5.32
2022-12-03T00:42:30.975Z,4.88
2022-12-03T00:47:23.820Z,6.20
2022-12-03T00:49:50.353Z,5.80
2022-12-03T00:52:16.810Z,5.35
2022-12-03T00:54:43.200Z,5.78
2022-12-03T00:57:09.647Z,5.72
2022-12-03T00:59:36.219Z,6.28
2022-12-03T01:04:29.542Z,6.78
2022-12-03T01:06:55.999Z,6.60
2022-12-03T01:09:22.380Z,6.43
2022-12-03T01:11:48.768Z,6.78
2022-12-03T01:14:17.404Z,6.45
2022-12-03T01:16:44.158Z,6.20
2022-12-03T01:19:11.271Z,6.22
2022-12-03T01:21:37.859Z,5.93
2022-12-03T01:24:04.816Z,6.85
2022-12-03T01:26:31.246Z,6.88
2022-12-03T01:28:57.671Z,7.30
2022-12-03T01:31:42.478Z,6.82
2022-12-03T01:34:08.960Z,7.40
2022-12-03T01:36:35.415Z,6.85
2022-12-03T01:39:03.578Z,6.93
2022-12-03T01:41:31.252Z,7.43
2022-12-03T01:43:58.611Z,6.80
2022-12-03T01:46:30.469Z,7.38
2022-12-03T01:48:56.997Z,6.90
2022-12-03T01:51:23.653Z,7.60
2022-12-03T01:53:50.732Z,7.53
2022-12-03T01:56:18.558Z,7.25
2022-12-03T01:58:46.468Z,7.43
2022-12-03T02:01:15.591Z,6.65
2022-12-03T02:03:42.619Z,6.90
2022-12-03T02:06:17.936Z,7.47
2022-12-03T02:08:45.460Z,7.10
2022-12-03T02:11:24.567Z,7.65
2022-12-03T02:13:54.777Z,6.97
2022-12-03T02:16:21.745Z,8.65
2022-12-03T02:18:48.662Z,7.75
2022-12-03T02:21:38.971Z,7.60
2022-12-03T02:24:26.983Z,7.75
2022-12-03T02:26:53.447Z,7.25
2022-12-03T02:29:19.923Z,7.53
2022-12-03T02:31:46.614Z,7.97
2022-12-03T02:34:43.228Z,8.90
2022-12-03T02:37:14.053Z,8.75
2022-12-03T02:39:44.042Z,8.75
2022-12-03T02:42:29.691Z,7.75
2022-12-03T02:45:04.885Z,8.18
2022-12-03T02:47:35.175Z,7.22
2022-12-03T02:50:02.518Z,7.80
2022-12-03T02:52:29.248Z,7.65
2022-12-03T02:54:56.031Z,7.72
2022-12-03T02:57:22.950Z,7.57
2022-12-03T02:59:49.456Z,8.10
2022-12-03T03:02:16.363Z,7.57
2022-12-03T03:04:43.875Z,8.65
2022-12-03T03:07:10.486Z,8.27
2022-12-03T03:12:03.584Z,9.73
2022-12-03T03:16:57.913Z,8.68
2022-12-03T03:19:28.569Z,7.90
2022-12-03T03:21:55.000Z,8.30
2022-12-03T03:24:22.137Z,8.32
2022-12-03T03:26:49.536Z,8.25
2022-12-03T03:29:16.193Z,8.07
2022-12-03T03:34:10.483Z,8.18
2022-12-03T03:36:37.518Z,8.23
2022-12-03T03:39:05.703Z,8.93
2022-12-03T03:41:33.844Z,9.10
2022-12-03T03:44:00.454Z,8.32
2022-12-03T03:48:54.393Z,7.88
2022-12-03T03:51:21.407Z,7.95
2022-12-03T03:53:49.857Z,7.55
2022-12-03T03:56:18.883Z,7.15
2022-12-03T03:58:45.319Z,7.80
2022-12-03T04:01:13.863Z,7.55
2022-12-03T04:03:40.874Z,7.93
2022-12-03T04:06:08.184Z,7.68
2022-12-03T04:08:34.619Z,7.75
2022-12-03T04:11:19.623Z,8.35
2022-12-03T04:13:46.046Z,8.40
2022-12-03T04:16:12.730Z,8.25
2022-12-03T04:18:45.009Z,8.20
2022-12-03T04:21:38.841Z,8.52
2022-12-03T04:24:06.655Z,7.53
2022-12-03T04:26:51.723Z,7.13
2022-12-03T04:29:18.884Z,7.40
2022-12-03T04:32:04.091Z,7.38
2022-12-03T04:34:50.025Z,8.18
2022-12-03T04:37:19.034Z,8.52
2022-12-03T04:39:45.510Z,8.23
2022-12-03T04:42:11.935Z,8.85
2022-12-03T04:44:38.364Z,7.45
2022-12-03T04:47:13.604Z,9.00
2022-12-03T04:49:42.947Z,7.90
2022-12-03T04:52:11.411Z,8.05
2022-12-03T04:54:39.092Z,8.20
2022-12-03T04:57:06.092Z,8.68
2022-12-03T04:59:32.822Z,8.02
2022-12-03T05:01:59.290Z,9.57
2022-12-03T05:06:52.678Z,9.45
2022-12-03T05:09:19.456Z,9.48
2022-12-03T05:11:45.889Z,8.65
2022-12-03T05:14:12.392Z,8.85
2022-12-03T05:16:39.763Z,8.38
2022-12-03T05:19:07.828Z,8.93
2022-12-03T05:21:34.441Z,8.95
2022-12-03T05:26:27.303Z,8.18
2022-12-03T05:28:53.707Z,8.82
2022-12-03T05:31:20.228Z,9.43
2022-12-03T05:36:13.341Z,8.43
2022-12-03T05:41:26.275Z,8.55
2022-12-03T05:43:52.717Z,9.32
2022-12-03T05:46:19.295Z,8.60
2022-12-03T05:51:12.207Z,9.25
2022-12-03T05:53:38.671Z,9.15
2022-12-03T05:56:05.744Z,10.32
2022-12-03T05:58:32.259Z,10.07
2022-12-03T06:00:58.635Z,8.55
2022-12-03T06:03:25.410Z,8.07
2022-12-03T06:05:51.854Z,8.27
2022-12-03T06:08:18.340Z,7.90
2022-12-03T06:10:44.750Z,7.78
2022-12-03T06:13:11.143Z,8.77
2022-12-03T06:15:43.446Z,8.95
2022-12-03T06:18:10.304Z,8.15
2022-12-03T06:20:36.697Z,8.73
2022-12-03T06:23:03.109Z,7.60
2022-12-03T06:25:29.495Z,9.00
2022-12-03T06:27:55.906Z,8.18
2022-12-03T06:30:22.285Z,8.05
2022-12-03T06:32:48.689Z,7.88
2022-12-03T06:35:15.172Z,8.82
2022-12-03T06:40:08.738Z,8.25
2022-12-03T06:42:35.176Z,9.73
2022-12-03T06:45:01.681Z,8.88
2022-12-03T06:47:29.539Z,8.27
2022-12-03T06:49:55.923Z,8.15
2022-12-03T06:52:22.428Z,8.43
2022-12-03T06:54:48.816Z,8.82
2022-12-03T06:57:15.301Z,9.13
2022-12-03T06:59:42.498Z,8.85
2022-12-03T07:02:10.154Z,9.15
2022-12-03T07:04:36.593Z,8.82
2022-12-03T07:07:03.044Z,8.25
2022-12-03T07:09:29.695Z,7.63
2022-12-03T07:11:57.006Z,7.63
2022-12-03T07:14:23.457Z,7.88
2022-12-03T07:16:49.907Z,7.93
2022-12-03T07:19:16.632Z,7.78
2022-12-03T07:21:43.086Z,8.43
2022-12-03T07:24:09.696Z,8.70
2022-12-03T07:29:02.773Z,8.82
2022-12-03T07:31:29.367Z,8.90
2022-12-03T07:33:56.118Z,8.60
2022-12-03T07:36:23.823Z,8.75
2022-12-03T07:38:50.211Z,9.45
2022-12-03T07:41:16.613Z,9.75
2022-12-03T07:43:44.671Z,9.45
2022-12-03T07:46:11.211Z,8.57
2022-12-03T07:51:05.528Z,8.27
2022-12-03T07:53:31.917Z,8.90
2022-12-03T07:55:58.395Z,8.80
2022-12-03T07:58:24.850Z,8.32
2022-12-03T08:00:51.374Z,8.93
2022-12-03T08:05:45.601Z,9.00
2022-12-03T08:08:12.294Z,8.07
2022-12-03T08:10:39.161Z,8.82
2022-12-03T08:13:12.968Z,8.98
2022-12-03T08:15:39.869Z,8.90
2022-12-03T08:18:16.644Z,8.65
2022-12-03T08:20:46.095Z,9.75
2022-12-03T08:23:24.359Z,9.38
2022-12-03T08:25:52.619Z,9.63
2022-12-03T08:28:25.656Z,9.85
2022-12-03T08:31:07.232Z,8.38
2022-12-03T08:33:36.637Z,8.55
2022-12-03T08:36:25.303Z,9.25
2022-12-03T08:39:38.008Z,9.23
2022-12-03T08:42:26.835Z,10.07
2022-12-03T08:44:54.722Z,8.73
2022-12-03T08:47:23.530Z,8.98
2022-12-03T08:49:55.903Z,8.77
2022-12-03T08:52:26.708Z,9.27
2022-12-03T08:54:55.601Z,9.10
2022-12-03T08:57:32.004Z,9.38
2022-12-03T09:00:17.307Z,8.85
2022-12-03T09:02:51.280Z,9.30
2022-12-03T09:05:25.888Z,8.57
2022-12-03T09:07:52.412Z,9.00
2022-12-03T09:10:18.821Z,9.30
2022-12-03T09:12:45.248Z,9.77
2022-12-03T09:15:11.737Z,9.68
2022-12-03T09:17:38.814Z,9.50
2022-12-03T09:20:06.513Z,9.52
2022-12-03T09:22:33.072Z,9.73
2022-12-03T09:24:59.676Z,9.63
2022-12-03T09:29:52.441Z,9.00
2022-12-03T09:32:19.169Z,9.82
2022-12-03T09:34:45.829Z,9.98
2022-12-03T09:39:38.546Z,9.60
2022-12-03T09:42:05.368Z,8.35
2022-12-03T09:44:35.393Z,8.63
2022-12-03T09:47:04.095Z,8.38
2022-12-03T09:49:32.566Z,8.73
2022-12-03T09:52:01.715Z,8.13
2022-12-03T09:54:29.788Z,8.85
2022-12-03T09:57:00.328Z,8.07
2022-12-03T09:59:31.652Z,8.25
2022-12-03T10:01:58.498Z,8.45
2022-12-03T10:04:25.049Z,7.90
2022-12-03T10:09:24.374Z,8.75
2022-12-03T10:11:51.290Z,9.93
2022-12-03T10:14:19.680Z,9.60
2022-12-03T10:16:46.458Z,10.57
2022-12-03T10:19:21.720Z,9.50
2022-12-03T10:21:48.468Z,10.10
2022-12-03T10:24:32.079Z,10.23
2022-12-03T10:27:01.401Z,9.38
2022-12-03T10:29:34.089Z,10.90
2022-12-03T10:32:12.698Z,10.32
2022-12-03T10:34:40.911Z,9.68
2022-12-03T10:37:21.871Z,10.32
2022-12-03T10:39:57.644Z,10.50
2022-12-03T10:42:29.961Z,9.95
2022-12-03T10:45:15.342Z,10.23
2022-12-03T10:47:43.566Z,9.65
2022-12-03T10:50:20.026Z,11.70
2022-12-03T10:52:47.858Z,9.90
2022-12-03T10:55:15.822Z,10.93
2022-12-03T10:57:46.162Z,10.52
2022-12-03T11:00:20.369Z,10.63
2022-12-03T11:02:56.149Z,10.00
2022-12-03T11:05:29.458Z,10.95
2022-12-03T11:07:56.453Z,11.13
2022-12-03T11:10:23.466Z,10.52
2022-12-03T11:13:34.079Z,10.93
2022-12-03T11:16:03.033Z,11.18
2022-12-03T11:18:35.716Z,10.32
2022-12-03T11:21:14.875Z,11.13
2022-12-03T11:23:44.524Z,10.60
2022-12-03T11:26:37.231Z,11.13
2022-12-03T11:29:05.004Z,10.93
2022-12-03T11:31:43.359Z,10.52
2022-12-03T11:34:17.241Z,11.43
2022-12-03T11:37:12.988Z,10.48
2022-12-03T11:39:52.457Z,10.43
2022-12-03T11:42:28.613Z,11.18
2022-12-03T11:45:04.578Z,11.15
2022-12-03T11:47:41.496Z,11.60
2022-12-03T11:50:21.635Z,10.18
2022-12-03T11:52:53.085Z,10.30
2022-12-03T11:55:28.807Z,10.82
2022-12-03T11:58:00.382Z,11.18
2022-12-03T12:00:27.182Z,10.35
2022-12-03T12:02:55.633Z,12.38
2022-12-03T12:05:25.173Z,11.63
2022-12-03T12:07:54.008Z,12.48
2022-12-03T12:10:41.036Z,11.15
2022-12-03T12:13:27.640Z,12.98
2022-12-03T12:15:54.919Z,11.75
2022-12-03T12:18:43.092Z,12.02
2022-12-03T12:21:47.958Z,12.13
2022-12-03T12:24:40.595Z,12.85
2022-12-03T12:27:11.625Z,12.63
2022-12-03T12:29:41.489Z,12.75
2022-12-03T12:32:12.313Z,12.63
2022-12-03T12:34:51.148Z,12.43
2022-12-03T12:37:23.380Z,13.10
2022-12-03T12:39:54.856Z,13.57
2022-12-03T12:42:35.076Z,14.18
2022-12-03T12:45:07.521Z,13.13
2022-12-03T12:47:36.136Z,13.23
2022-12-03T12:50:10.539Z,12.85
2022-12-03T12:52:49.639Z,13.13
2022-12-03T12:55:17.342Z,11.98
2022-12-03T12:57:45.137Z,11.60
2022-12-03T13:00:20.638Z,10.82
2022-12-03T13:02:59.697Z,10.60
2022-12-03T13:05:32.988Z,16.70
2022-12-03T13:07:59.537Z,14.48
2022-12-03T13:13:30.842Z,11.88
2022-12-03T13:16:01.343Z,11.45
2022-12-03T13:18:38.560Z,11.73
2022-12-03T13:23:40.539Z,10.60
2022-12-03T13:26:38.593Z,11.25
2022-12-03T13:29:15.553Z,10.77
2022-12-03T13:31:48.667Z,11.57
2022-12-03T13:34:20.796Z,11.40
2022-12-03T13:36:53.548Z,11.38
2022-12-03T13:39:30.815Z,11.25
2022-12-03T13:42:24.056Z,11.48
2022-12-03T13:44:53.072Z,12.13
2022-12-03T13:47:22.069Z,12.90
2022-12-03T13:49:58.214Z,12.32
2022-12-03T13:52:25.973Z,13.40
2022-12-03T13:54:55.838Z,12.30
2022-12-03T13:57:23.024Z,13.88
2022-12-03T13:59:49.655Z,14.15
2022-12-03T14:04:42.724Z,15.10
2022-12-03T14:07:09.154Z,13.82
2022-12-03T14:09:35.587Z,13.85
2022-12-03T14:12:22.154Z,14.00
2022-12-03T14:14:49.433Z,14.30
2022-12-03T14:17:15.921Z,14.43
2022-12-03T14:19:42.358Z,14.48
2022-12-03T14:22:09.923Z,16.25
2022-12-03T14:24:37.507Z,14.73
2022-12-03T14:27:04.020Z,15.70
2022-12-03T14:29:30.611Z,14.55
2022-12-03T14:34:25.045Z,15.45
2022-12-03T14:36:51.476Z,15.35
2022-12-03T14:39:17.907Z,16.55
2022-12-03T14:42:03.034Z,15.32
2022-12-03T14:44:29.466Z,14.77
2022-12-03T14:46:57.468Z,15.20
2022-12-03T14:49:24.640Z,16.10
2022-12-03T14:51:51.069Z,16.65
2022-12-03T14:54:18.807Z,14.10
2022-12-03T14:56:45.215Z,15.15
2022-12-03T14:59:11.635Z,15.88
2022-12-03T15:01:38.172Z,15.75
2022-12-03T15:04:05.615Z,15.63
2022-12-03T15:06:32.420Z,15.77
2022-12-03T15:08:58.873Z,15.70
2022-12-03T15:11:25.297Z,16.38
2022-12-03T15:13:51.828Z,16.75
2022-12-03T15:18:45.420Z,17.65
2022-12-03T15:23:38.623Z,17.10
2022-12-03T15:26:05.233Z,17.02
2022-12-03T15:30:58.063Z,15.40
2022-12-03T15:33:24.629Z,15.80
2022-12-03T15:35:51.583Z,15.35
2022-12-03T15:38:18.100Z,16.13
2022-12-03T15:40:44.797Z,16.17
2022-12-03T15:43:11.708Z,16.33
2022-12-03T15:45:38.217Z,15.50
2022-12-03T15:48:05.370Z,16.15
2022-12-03T15:50:35.776Z,15.25
2022-12-03T15:53:06.338Z,16.77
2022-12-03T15:55:32.893Z,15.93
2022-12-03T16:00:25.644Z,15.07
2022-12-03T16:02:53.053Z,16.10
2022-12-03T16:05:20.110Z,15.52
2022-12-03T16:07:46.624Z,18.70
2022-12-03T16:10:13.510Z,17.65
2022-12-03T16:12:40.229Z,18.05
2022-12-03T16:17:33.725Z,15.80
2022-12-03T16:20:00.240Z,18.08
2022-12-03T16:22:27.143Z,16.58
2022-12-03T16:24:53.708Z,17.05
2022-12-03T16:29:52.763Z,19.33
2022-12-03T16:32:20.119Z,17.55
2022-12-03T16:34:46.659Z,17.58
2022-12-03T16:39:47.418Z,18.45
2022-12-03T16:42:17.140Z,16.20
2022-12-03T16:45:04.246Z,17.30
2022-12-03T16:47:34.164Z,17.03
2022-12-03T16:50:02.334Z,18.67
2022-12-03T16:52:28.994Z,20.52
2022-12-03T16:57:21.807Z,19.42
2022-12-03T16:59:48.475Z,20.67
2022-12-03T17:04:43.005Z,24.30
2022-12-03T17:07:09.698Z,28.30
2022-12-03T17:09:36.161Z,29.85
2022-12-03T17:12:02.664Z,25.95
2022-12-03T17:14:33.222Z,20.13
2022-12-03T17:17:00.309Z,19.33
2022-12-03T17:21:54.070Z,18.08
2022-12-03T17:24:21.405Z,19.42
2022-12-03T17:26:48.337Z,20.15
2022-12-03T17:29:15.106Z,20.58
2022-12-03T17:31:42.910Z,25.52
2022-12-03T17:34:10.221Z,31.48
2022-12-03T17:36:37.690Z,39.90
2022-12-03T17:39:04.264Z,46.60
2022-12-03T17:41:31.537Z,48.35
2022-12-03T17:43:57.931Z,45.85
2022-12-03T17:48:52.050Z,44.80
2022-12-03T17:51:20.747Z,40.80
2022-12-03T17:53:47.159Z,42.25
2022-12-03T17:56:13.668Z,43.13
2022-12-03T17:58:40.090Z,19.30
2022-12-03T18:01:08.490Z,17.50
2022-12-03T18:03:35.029Z,16.25
2022-12-03T18:08:28.168Z,14.95
2022-12-03T18:10:54.647Z,14.27
2022-12-03T18:13:21.125Z,15.85
2022-12-03T18:15:47.930Z,15.00
2022-12-03T18:18:14.376Z,14.52
2022-12-03T18:20:40.861Z,16.25
2022-12-03T18:23:07.310Z,17.83
2022-12-03T18:25:33.759Z,20.05
2022-12-03T18:28:00.221Z,18.30
2022-12-03T18:30:26.672Z,21.13
2022-12-03T18:35:20.612Z,19.13
2022-12-03T18:37:49.262Z,18.42
2022-12-03T18:40:23.612Z,17.95
2022-12-03T18:42:50.342Z,16.20
2022-12-03T18:47:43.660Z,15.45
2022-12-03T18:50:11.471Z,15.30
2022-12-03T18:52:38.346Z,15.15
2022-12-03T18:55:06.118Z,15.50
2022-12-03T18:57:32.579Z,16.05
2022-12-03T18:59:59.405Z,17.63
2022-12-03T19:02:54.190Z,17.92
2022-12-03T19:05:12.604Z,19.35
2022-12-03T19:10:06.872Z,21.88
2022-12-03T19:12:33.378Z,21.10
2022-12-03T19:14:59.866Z,24.42
2022-12-03T19:17:27.243Z,30.23
2022-12-03T19:19:54.714Z,25.52
2022-12-03T19:22:21.699Z,19.13
2022-12-03T19:24:48.213Z,26.77
2022-12-03T19:27:15.056Z,27.08
2022-12-03T19:29:41.825Z,19.02
2022-12-03T19:32:08.882Z,16.13
2022-12-03T19:34:35.748Z,17.50
2022-12-03T19:37:02.191Z,15.60
2022-12-03T19:39:28.708Z,16.45
2022-12-03T19:41:55.161Z,17.70
2022-12-03T19:44:21.734Z,17.13
2022-12-03T19:49:20.845Z,15.02
2022-12-03T19:51:47.584Z,15.23
2022-12-03T19:54:14.916Z,14.98
2022-12-03T19:56:41.495Z,15.35
2022-12-03T20:01:36.349Z,17.88
2022-12-03T20:04:04.035Z,16.77
2022-12-03T20:06:33.924Z,18.85
2022-12-03T20:09:03.758Z,14.85
2022-12-03T20:11:33.134Z,14.20
2022-12-03T20:14:03.257Z,13.82
2022-12-03T20:16:30.684Z,14.90
2022-12-03T20:18:59.930Z,16.17
2022-12-03T20:21:30.045Z,15.25
2022-12-03T20:23:56.548Z,15.95
2022-12-03T20:26:23.965Z,16.25
2022-12-03T20:28:52.600Z,14.88
2022-12-03T20:31:21.632Z,16.30
2022-12-03T20:33:50.765Z,17.13
2022-12-03T20:36:19.588Z,16.27
2022-12-03T20:38:46.996Z,17.52
2022-12-03T20:41:21.080Z,16.83
2022-12-03T20:43:48.306Z,16.42
2022-12-03T20:46:16.206Z,16.70
2022-12-03T20:48:44.418Z,16.13
2022-12-03T20:51:13.899Z,16.30
2022-12-03T20:53:40.835Z,15.50
2022-12-03T20:56:08.551Z,15.23
2022-12-03T20:58:35.835Z,15.57
2022-12-03T21:01:15.963Z,15.20
2022-12-03T21:03:43.947Z,16.30
2022-12-03T21:06:11.237Z,15.95
2022-12-03T21:08:42.619Z,14.10
2022-12-03T21:11:14.603Z,14.50
2022-12-03T21:13:43.505Z,15.23
2022-12-03T21:16:13.271Z,14.73
2022-12-03T21:18:39.929Z,14.65
2022-12-03T21:23:33.719Z,15.23
2022-12-03T21:26:15.439Z,15.52
2022-12-03T21:28:48.910Z,15.13
2022-12-03T21:31:25.680Z,16.20
2022-12-03T21:33:56.716Z,14.02
2022-12-03T21:36:24.335Z,14.18
2022-12-03T21:38:51.073Z,13.85
2022-12-03T21:41:19.306Z,13.98
2022-12-03T21:43:46.414Z,13.88
2022-12-03T21:47:12.530Z,14.52
2022-12-03T21:49:03.528Z,12.68
2022-12-03T21:51:29.980Z,14.93
2022-12-03T21:53:56.503Z,14.73
2022-12-03T21:56:22.986Z,12.90
2022-12-03T21:58:49.453Z,12.93
2022-12-03T22:01:22.052Z,13.57
2022-12-03T22:03:49.242Z,14.05
2022-12-03T22:06:16.772Z,12.63
2022-12-03T22:08:43.979Z,12.70
2022-12-03T22:11:13.290Z,12.38
2022-12-03T22:13:40.225Z,12.15
2022-12-03T22:16:09.380Z,13.35
2022-12-03T22:18:36.368Z,12.23
2022-12-03T22:21:08.415Z,12.98
2022-12-03T22:23:35.047Z,12.30
2022-12-03T22:28:33.799Z,11.90
2022-12-03T22:31:05.943Z,13.15
2022-12-03T22:33:32.463Z,13.13
2022-12-03T22:36:04.967Z,12.45
2022-12-03T22:38:32.410Z,11.60
2022-12-03T22:40:59.205Z,12.88
2022-12-03T22:43:26.082Z,11.07
2022-12-03T22:45:56.487Z,11.32
2022-12-03T22:48:24.194Z,11.68
2022-12-03T22:50:52.086Z,11.73
2022-12-03T22:53:20.265Z,13.00
2022-12-03T22:55:58.385Z,14.60
2022-12-03T22:58:26.364Z,14.32
2022-12-03T23:00:52.922Z,13.80
2022-12-03T23:05:46.066Z,12.30
2022-12-03T23:08:15.122Z,12.48
2022-12-03T23:10:43.833Z,12.43
2022-12-03T23:13:11.537Z,12.43
2022-12-03T23:15:43.050Z,11.63
2022-12-03T23:18:09.704Z,11.10
2022-12-03T23:20:45.094Z,12.00
2022-12-03T23:23:14.464Z,12.75
2022-12-03T23:25:41.396Z,10.93
2022-12-03T23:28:08.671Z,11.35
2022-12-03T23:30:37.128Z,11.65
2022-12-03T23:33:04.872Z,11.50
2022-12-03T23:35:32.220Z,10.55
2022-12-03T23:37:58.705Z,11.10
2022-12-03T23:40:25.135Z,11.02
2022-12-03T23:42:51.588Z,11.05
2022-12-03T23:45:18.033Z,11.63
2022-12-03T23:47:44.666Z,11.70
2022-12-03T23:50:11.738Z,11.40
2022-12-03T23:52:38.366Z,14.25
2022-12-03T23:57:32.295Z,14.18
2022-12-03T23:59:58.806Z,15.38
